Urban, Kentucky
Current Conditions -  °F | °C
As of 8:53 AM on Thursday 29 Jan 2015 (Local Time) from KLOZ Reporting Station
Moderate Rain Moderate Rain  
Wind Chill: 36°   Ceiling: 7000
Heat Index: 42°   Visibility: 6mi
Dew Point: 27°   Wind: 10mph
Humidity: 55%   Direction: 180°S
Pressure: 30.05"   Gusts: NA
Location:  37.1101°N, 83.7537°W
Report Text: KLOZ 291353Z AUTO 18009KT 6SM RA OVC070 06/M03 A3005 RMK AO2 RAB28 SLP181 P0003 T00561028
Loading
Personal Weather Stations






























Interactive Weather Map New forecast layout! Learn more

10-Day Weather Forecast

Advertisements
Track Severe Weather on mobile